createdAt,value
2019-04-16T00:01:53.076Z,50.35
2019-04-16T00:04:34.383Z,51.66
2019-04-16T00:07:25.180Z,50.98
2019-04-16T00:10:03.671Z,51.14
2019-04-16T00:12:52.968Z,51.25
2019-04-16T00:15:23.867Z,51.84
2019-04-16T00:17:54.650Z,50.81
2019-04-16T00:20:25.423Z,51.52
2019-04-16T00:23:06.984Z,52.02
2019-04-16T00:25:37.786Z,53.31
2019-04-16T00:28:08.558Z,53.36
2019-04-16T00:30:39.334Z,53.11
2019-04-16T00:33:10.806Z,53.04
2019-04-16T00:35:46.441Z,52.48
2019-04-16T00:38:14.981Z,52.72
2019-04-16T00:40:45.773Z,53.12
2019-04-16T00:43:16.537Z,52.40
2019-04-16T00:45:47.319Z,51.68
2019-04-16T00:48:18.090Z,54.11
2019-04-16T00:50:48.885Z,54.24
2019-04-16T00:53:19.664Z,52.28
2019-04-16T00:55:50.465Z,51.97
2019-04-16T00:58:21.237Z,51.40
2019-04-16T01:00:52.006Z,50.99
2019-04-16T01:03:22.786Z,51.38
2019-04-16T01:05:53.555Z,51.41
2019-04-16T01:08:24.436Z,50.93
2019-04-16T01:10:55.207Z,51.36
2019-04-16T01:13:25.993Z,50.55
2019-04-16T01:15:56.855Z,50.71
2019-04-16T01:18:27.744Z,51.92
2019-04-16T01:20:58.507Z,53.89
2019-04-16T01:23:29.292Z,53.57
2019-04-16T01:26:00.076Z,54.42
2019-04-16T01:28:47.957Z,54.35
2019-04-16T01:31:20.625Z,55.36
2019-04-16T01:33:59.477Z,56.80
2019-04-16T01:36:38.211Z,56.86
2019-04-16T01:39:17.936Z,56.39
2019-04-16T01:41:46.760Z,54.79
2019-04-16T01:44:17.530Z,56.47
2019-04-16T01:46:48.303Z,55.35
2019-04-16T01:49:19.072Z,54.86
2019-04-16T01:51:49.863Z,55.61
2019-04-16T01:54:22.795Z,56.46
2019-04-16T01:56:53.332Z,56.05
2019-04-16T01:59:24.097Z,56.90
2019-04-16T02:01:54.975Z,56.88
2019-04-16T02:04:25.774Z,56.78
2019-04-16T02:06:57.184Z,56.12
2019-04-16T02:09:31.237Z,56.99
2019-04-16T02:12:01.591Z,57.38
2019-04-16T02:14:32.386Z,57.58
2019-04-16T02:17:03.149Z,57.40
2019-04-16T02:19:33.919Z,57.49
2019-04-16T02:22:04.696Z,57.51
2019-04-16T02:24:35.466Z,57.74
2019-04-16T02:27:06.244Z,59.21
2019-04-16T02:29:37.010Z,59.25
2019-04-16T02:32:07.789Z,59.17
2019-04-16T02:34:38.550Z,59.31
2019-04-16T02:37:09.400Z,57.54
2019-04-16T02:39:49.011Z,56.62
2019-04-16T02:42:13.125Z,58.05
2019-04-16T02:44:48.866Z,58.06
2019-04-16T02:47:16.612Z,57.61
2019-04-16T02:49:47.380Z,56.56
2019-04-16T02:52:20.075Z,57.79
2019-04-16T02:54:56.047Z,58.02
2019-04-16T02:57:46.912Z,57.30
2019-04-16T03:00:36.242Z,57.76
2019-04-16T03:03:14.728Z,56.47
2019-04-16T03:05:47.419Z,56.81
2019-04-16T03:08:18.211Z,57.40
2019-04-16T03:10:48.987Z,57.04
2019-04-16T03:13:23.028Z,55.47
2019-04-16T03:16:09.750Z,56.09
2019-04-16T03:18:46.951Z,57.75
2019-04-16T03:21:15.189Z,57.88
2019-04-16T03:23:45.959Z,56.65
2019-04-16T03:26:18.157Z,57.28
2019-04-16T03:28:49.128Z,58.63
2019-04-16T03:31:23.169Z,59.83
2019-04-16T03:33:52.593Z,59.27
2019-04-16T03:36:23.359Z,58.66
2019-04-16T03:38:54.143Z,57.75
2019-04-16T03:41:25.795Z,56.77
2019-04-16T03:43:56.713Z,57.55
2019-04-16T03:46:27.514Z,58.20
2019-04-16T03:48:58.274Z,58.25
2019-04-16T03:51:29.037Z,57.29
2019-04-16T03:53:59.817Z,57.68
2019-04-16T03:56:31.257Z,57.49
2019-04-16T03:59:02.160Z,59.41
2019-04-16T04:01:33.029Z,58.82
2019-04-16T04:04:03.817Z,58.82
2019-04-16T04:06:36.534Z,59.53
2019-04-16T04:09:07.423Z,58.67
2019-04-16T04:11:40.885Z,59.66
2019-04-16T04:14:10.955Z,59.73
2019-04-16T04:16:41.724Z,59.69
2019-04-16T04:19:15.127Z,60.25
2019-04-16T04:21:45.230Z,59.85
2019-04-16T04:24:16.013Z,60.26
2019-04-16T04:26:46.791Z,60.27
2019-04-16T04:29:20.747Z,60.72
2019-04-16T04:31:50.388Z,60.52
2019-04-16T04:34:21.188Z,59.62
2019-04-16T04:36:51.937Z,57.68
2019-04-16T04:39:22.714Z,58.03
2019-04-16T04:41:56.412Z,58.44
2019-04-16T04:44:26.186Z,58.22
2019-04-16T04:46:56.957Z,57.45
2019-04-16T04:49:30.359Z,56.77
2019-04-16T04:52:01.272Z,56.93
2019-04-16T04:54:32.066Z,57.64
2019-04-16T04:57:02.826Z,57.47
2019-04-16T04:59:36.533Z,57.39
2019-04-16T05:02:06.300Z,57.61
2019-04-16T05:04:38.994Z,56.50
2019-04-16T05:07:11.674Z,55.68
2019-04-16T05:09:42.470Z,55.51
2019-04-16T05:12:13.364Z,55.12
2019-04-16T05:14:51.179Z,55.99
2019-04-16T05:17:23.865Z,55.29
2019-04-16T05:19:54.684Z,54.45
2019-04-16T05:22:25.462Z,54.40
2019-04-16T05:25:01.041Z,55.80
2019-04-16T05:27:29.447Z,54.87
2019-04-16T05:30:00.540Z,55.24
2019-04-16T05:32:33.915Z,54.56
2019-04-16T05:35:09.065Z,53.97
2019-04-16T05:37:37.796Z,53.99
2019-04-16T05:40:08.715Z,53.25
2019-04-16T05:42:39.467Z,53.43
2019-04-16T05:45:11.495Z,53.00
2019-04-16T05:47:42.298Z,52.83
2019-04-16T05:50:13.060Z,53.04
2019-04-16T05:52:43.836Z,53.51
2019-04-16T05:55:17.688Z,53.35
2019-04-16T05:57:51.116Z,52.58
2019-04-16T06:00:26.375Z,52.63
2019-04-16T06:02:57.156Z,53.19
2019-04-16T06:05:28.195Z,52.95
2019-04-16T06:08:09.053Z,52.49
2019-04-16T06:10:41.154Z,52.54
2019-04-16T06:13:16.820Z,51.53
2019-04-16T06:16:06.243Z,52.57
2019-04-16T06:18:55.586Z,51.32
2019-04-16T06:21:37.418Z,50.20
2019-04-16T06:24:26.713Z,50.19
2019-04-16T06:27:01.929Z,48.98
2019-04-16T06:29:49.582Z,49.10
2019-04-16T06:32:31.379Z,47.95
2019-04-16T06:35:04.961Z,48.58
2019-04-16T06:37:55.866Z,48.52
2019-04-16T06:40:40.419Z,48.20
2019-04-16T06:43:26.142Z,47.34
2019-04-16T06:46:11.788Z,47.82
2019-04-16T06:48:50.254Z,47.67
2019-04-16T06:51:31.943Z,46.96
2019-04-16T06:54:11.242Z,46.35
2019-04-16T06:57:00.733Z,45.73
2019-04-16T06:59:36.463Z,47.32
2019-04-16T07:02:10.584Z,46.66
2019-04-16T07:05:01.227Z,45.66
2019-04-16T07:07:39.945Z,45.77
2019-04-16T07:10:11.032Z,45.31
2019-04-16T07:12:41.893Z,45.59
2019-04-16T07:15:12.980Z,45.64
2019-04-16T07:17:43.755Z,45.61
2019-04-16T07:20:14.536Z,45.60
2019-04-16T07:22:45.302Z,45.36
2019-04-16T07:25:16.623Z,44.81
2019-04-16T07:27:53.748Z,44.83
2019-04-16T07:30:40.581Z,43.71
2019-04-16T07:33:13.566Z,42.46
2019-04-16T07:35:55.142Z,44.19
2019-04-16T07:38:35.142Z,44.48
2019-04-16T07:41:16.898Z,42.18
2019-04-16T07:44:07.879Z,39.37
2019-04-16T07:46:38.433Z,39.46
2019-04-16T07:49:17.167Z,39.15
2019-04-16T07:52:07.801Z,40.44
2019-04-16T07:54:49.755Z,39.91
2019-04-16T07:57:20.531Z,36.30
2019-04-16T07:59:51.304Z,35.78
2019-04-16T08:02:22.415Z,36.87
2019-04-16T08:04:53.284Z,36.53
2019-04-16T08:07:24.048Z,35.31
2019-04-16T08:09:54.817Z,34.26
2019-04-16T08:12:30.429Z,34.49
2019-04-16T08:15:11.904Z,34.47
2019-04-16T08:17:30.950Z,35.50
2019-04-16T08:20:01.728Z,33.71
2019-04-16T08:22:32.494Z,33.55
2019-04-16T08:25:04.681Z,33.81
2019-04-16T08:27:35.440Z,34.18
2019-04-16T08:30:08.529Z,33.75
2019-04-16T08:32:39.309Z,33.12
2019-04-16T08:35:10.251Z,34.09
2019-04-16T08:37:48.792Z,33.57
2019-04-16T08:40:13.832Z,33.42
2019-04-16T08:42:45.138Z,32.79
2019-04-16T08:45:16.081Z,32.47
2019-04-16T08:47:46.886Z,31.91
2019-04-16T08:50:17.666Z,32.00
2019-04-16T08:52:48.440Z,32.20
2019-04-16T08:55:20.527Z,30.68
2019-04-16T08:57:52.105Z,31.21
2019-04-16T09:00:23.198Z,30.82
2019-04-16T09:02:57.592Z,31.80
2019-04-16T09:05:27.040Z,30.06
2019-04-16T09:08:11.866Z,30.25
2019-04-16T09:10:32.487Z,31.73
2019-04-16T09:13:20.261Z,29.61
2019-04-16T09:15:51.120Z,30.51
2019-04-16T09:18:29.610Z,30.93
2019-04-16T09:21:00.505Z,30.12
2019-04-16T09:23:31.276Z,29.57
2019-04-16T09:26:13.502Z,30.24
2019-04-16T09:28:41.631Z,30.54
2019-04-16T09:31:14.355Z,31.67
2019-04-16T09:33:49.604Z,31.41
2019-04-16T09:36:22.280Z,31.29
2019-04-16T09:38:58.026Z,31.55
2019-04-16T09:41:30.953Z,31.09
2019-04-16T09:44:01.729Z,31.13
2019-04-16T09:46:50.415Z,29.07
2019-04-16T09:49:06.256Z,31.16
2019-04-16T09:51:37.164Z,31.16
2019-04-16T09:54:12.683Z,29.35
2019-04-16T09:56:41.747Z,28.18
2019-04-16T09:59:16.329Z,28.18
2019-04-16T10:01:49.244Z,27.93
2019-04-16T10:04:20.535Z,27.93
2019-04-16T10:06:51.352Z,28.40
2019-04-16T10:09:22.672Z,28.40
2019-04-16T10:11:56.983Z,27.56
2019-04-16T10:14:26.803Z,27.56
2019-04-16T10:16:57.905Z,27.58
2019-04-16T10:19:29.701Z,26.83
2019-04-16T10:22:00.501Z,26.83
2019-04-16T10:24:50.142Z,27.09
2019-04-16T10:27:22.887Z,27.06
2019-04-16T10:29:53.624Z,26.22
2019-04-16T10:32:25.924Z,26.22
2019-04-16T10:34:56.692Z,26.12
2019-04-16T10:37:27.478Z,25.79
2019-04-16T10:40:00.221Z,25.62
2019-04-16T10:42:32.884Z,26.12
2019-04-16T10:45:06.476Z,27.15
2019-04-16T10:47:48.029Z,25.04
2019-04-16T10:50:20.682Z,24.93
2019-04-16T10:52:55.690Z,25.25
2019-04-16T10:55:39.955Z,25.05
2019-04-16T10:58:29.735Z,25.36
2019-04-16T11:01:08.339Z,25.50
2019-04-16T11:03:53.071Z,23.24
2019-04-16T11:06:25.753Z,24.32
2019-04-16T11:08:56.542Z,24.46
2019-04-16T11:11:27.324Z,23.92
2019-04-16T11:14:00.097Z,24.49
2019-04-16T11:16:30.766Z,25.09
2019-04-16T11:19:01.683Z,23.90
2019-04-16T11:21:32.434Z,24.15
2019-04-16T11:24:03.205Z,23.10
2019-04-16T11:26:33.984Z,22.30
2019-04-16T11:29:05.101Z,23.05
2019-04-16T11:31:36.781Z,21.90
2019-04-16T11:34:08.890Z,22.35
2019-04-16T11:36:39.687Z,22.44
2019-04-16T11:39:11.035Z,22.71
2019-04-16T11:41:41.830Z,21.23
2019-04-16T11:44:15.592Z,22.65
2019-04-16T11:46:45.322Z,23.21
2019-04-16T11:49:16.365Z,20.13
2019-04-16T11:51:47.364Z,22.90
2019-04-16T11:54:18.191Z,22.01
2019-04-16T11:59:19.618Z,21.53
2019-04-16T12:02:09.200Z,22.46
2019-04-16T12:04:44.958Z,21.68
2019-04-16T12:07:26.564Z,21.32
2019-04-16T12:09:59.256Z,22.09
2019-04-16T12:12:34.518Z,22.21
2019-04-16T12:15:19.288Z,21.98
2019-04-16T12:17:54.547Z,21.03
2019-04-16T12:20:43.845Z,19.61
2019-04-16T12:23:22.568Z,21.15
2019-04-16T12:26:01.988Z,20.81
2019-04-16T12:28:51.926Z,20.01
2019-04-16T12:31:41.306Z,19.46
2019-04-16T12:34:14.001Z,19.49
2019-04-16T12:36:52.461Z,19.23
2019-04-16T12:39:25.144Z,19.72
2019-04-16T12:42:06.893Z,19.60
2019-04-16T12:44:45.520Z,20.80
2019-04-16T12:47:16.901Z,20.79
2019-04-16T12:50:06.284Z,19.43
2019-04-16T12:52:38.931Z,19.11
2019-04-16T12:55:31.335Z,20.01
2019-04-16T12:58:21.167Z,20.36
2019-04-16T13:01:06.093Z,20.25
2019-04-16T13:03:41.829Z,19.82
2019-04-16T13:06:14.515Z,19.88
2019-04-16T13:08:53.272Z,19.69
2019-04-16T13:11:24.704Z,18.73
2019-04-16T13:13:57.401Z,17.90
2019-04-16T13:16:30.179Z,19.62
2019-04-16T13:19:02.867Z,18.89
2019-04-16T13:21:47.589Z,19.75
2019-04-16T13:24:26.279Z,17.57
2019-04-16T13:26:58.947Z,18.69
2019-04-16T13:29:30.592Z,18.14
2019-04-16T13:32:01.812Z,17.49
2019-04-16T13:34:32.691Z,18.24
2019-04-16T13:37:03.456Z,18.18
2019-04-16T13:39:40.001Z,16.51
2019-04-16T13:42:08.924Z,17.15
2019-04-16T13:44:50.453Z,18.94
2019-04-16T13:47:21.626Z,17.33
2019-04-16T13:49:54.325Z,16.71
2019-04-16T13:52:25.509Z,18.17
2019-04-16T13:54:58.393Z,17.82
2019-04-16T13:57:33.827Z,18.32
2019-04-16T14:00:10.524Z,18.25
2019-04-16T14:02:51.254Z,17.43
2019-04-16T14:05:22.500Z,17.83
2019-04-16T14:07:53.273Z,17.43
2019-04-16T14:10:24.061Z,17.62
2019-04-16T14:12:54.828Z,17.89
2019-04-16T14:15:32.227Z,17.26
2019-04-16T14:18:00.837Z,17.63
2019-04-16T14:20:32.503Z,18.43
2019-04-16T14:23:03.273Z,18.07
2019-04-16T14:25:34.083Z,18.42
2019-04-16T14:28:06.841Z,18.47
2019-04-16T14:30:42.622Z,19.30
2019-04-16T14:33:14.118Z,18.51
2019-04-16T14:35:44.910Z,18.63
2019-04-16T14:38:17.587Z,18.70
2019-04-16T14:40:48.386Z,17.72
2019-04-16T14:43:21.055Z,17.93
2019-04-16T14:45:58.333Z,18.12
2019-04-16T14:48:25.016Z,17.78
2019-04-16T14:50:55.792Z,17.11
2019-04-16T14:53:28.465Z,16.86
2019-04-16T14:56:01.780Z,17.35
2019-04-16T14:58:40.893Z,16.42
2019-04-16T15:01:30.631Z,16.97
2019-04-16T15:04:12.591Z,17.83
2019-04-16T15:06:52.743Z,17.69
2019-04-16T15:09:37.796Z,18.25
2019-04-16T15:12:13.309Z,18.01
2019-04-16T15:14:57.709Z,17.79
2019-04-16T15:17:39.400Z,17.35
2019-04-16T15:20:24.524Z,17.49
2019-04-16T15:23:00.028Z,18.48
2019-04-16T15:25:49.261Z,18.67
2019-04-16T15:28:38.588Z,17.25
2019-04-16T15:31:19.963Z,17.23
2019-04-16T15:33:52.949Z,17.98
2019-04-16T15:36:25.633Z,18.40
2019-04-16T15:39:02.977Z,17.90
2019-04-16T15:41:41.689Z,17.77
2019-04-16T15:44:23.670Z,18.75
2019-04-16T15:47:14.834Z,17.05
2019-04-16T15:49:59.941Z,17.48
2019-04-16T15:52:38.791Z,17.09
2019-04-16T15:55:20.269Z,16.10
2019-04-16T15:57:55.996Z,17.69
2019-04-16T16:00:44.043Z,19.56
2019-04-16T16:03:34.607Z,20.72
2019-04-16T16:06:09.873Z,21.82
2019-04-16T16:08:45.595Z,21.05
2019-04-16T16:11:18.272Z,21.48
2019-04-16T16:13:49.051Z,22.09
2019-04-16T16:16:19.828Z,22.83
2019-04-16T16:18:50.610Z,24.46
2019-04-16T16:21:21.382Z,23.27
2019-04-16T16:23:52.150Z,23.36
2019-04-16T16:26:22.926Z,22.97
2019-04-16T16:28:53.737Z,24.08
2019-04-16T16:31:24.510Z,22.25
2019-04-16T16:33:55.297Z,22.71
2019-04-16T16:36:26.084Z,22.39
2019-04-16T16:38:57.359Z,23.45
2019-04-16T16:41:28.248Z,23.62
2019-04-16T16:43:59.036Z,23.47
2019-04-16T16:46:55.959Z,23.33
2019-04-16T16:49:16.532Z,23.70
2019-04-16T16:51:49.209Z,24.09
2019-04-16T16:54:21.888Z,24.33
2019-04-16T16:56:54.676Z,24.54
2019-04-16T16:59:30.258Z,24.24
2019-04-16T17:02:08.286Z,25.30
2019-04-16T17:04:37.643Z,24.45
2019-04-16T17:07:08.506Z,25.46
2019-04-16T17:09:39.284Z,25.51
2019-04-16T17:12:10.045Z,26.57
2019-04-16T17:14:40.816Z,27.55
2019-04-16T17:17:14.637Z,26.96
2019-04-16T17:19:44.282Z,26.96
2019-04-16T17:22:17.432Z,27.13
2019-04-16T17:24:47.938Z,28.00
2019-04-16T17:27:18.702Z,28.11
2019-04-16T17:29:50.793Z,28.44
2019-04-16T17:32:21.843Z,27.24
2019-04-16T17:34:52.625Z,28.14
2019-04-16T17:37:27.992Z,27.40
2019-04-16T17:39:58.018Z,27.57
2019-04-16T17:42:37.720Z,28.11
2019-04-16T17:45:22.775Z,28.11
2019-04-16T17:48:01.215Z,28.48
2019-04-16T17:50:39.497Z,29.13
2019-04-16T17:53:11.272Z,28.18
2019-04-16T17:56:00.110Z,28.18
2019-04-16T17:58:36.131Z,28.43
2019-04-16T18:01:11.058Z,29.04
2019-04-16T18:03:43.800Z,28.34
2019-04-16T18:06:22.605Z,28.34
2019-04-16T18:09:10.371Z,28.75
2019-04-16T18:11:44.715Z,28.23
2019-04-16T18:14:34.454Z,28.23
2019-04-16T18:17:26.720Z,29.04
2019-04-16T18:19:58.560Z,29.04
2019-04-16T18:22:31.214Z,28.88
2019-04-16T18:25:05.421Z,28.88
2019-04-16T18:27:40.862Z,28.88
2019-04-16T18:30:30.163Z,28.20
2019-04-16T18:33:15.115Z,28.59
2019-04-16T18:35:47.895Z,28.59
2019-04-16T18:38:24.396Z,28.25
2019-04-16T18:41:02.457Z,29.30
2019-04-16T18:43:31.649Z,28.26
2019-04-16T18:46:16.416Z,28.69
2019-04-16T18:48:55.506Z,28.45
2019-04-16T18:51:26.611Z,29.05
2019-04-16T18:53:57.501Z,28.15
2019-04-16T18:56:28.365Z,28.80
2019-04-16T18:58:59.141Z,28.69
2019-04-16T19:01:32.607Z,29.36
2019-04-16T19:04:04.109Z,29.71
2019-04-16T19:06:34.884Z,29.12
2019-04-16T19:09:06.043Z,29.57
2019-04-16T19:11:36.922Z,29.11
2019-04-16T19:14:10.327Z,30.12
2019-04-16T19:16:40.400Z,29.44
2019-04-16T19:19:11.172Z,29.98
2019-04-16T19:21:42.575Z,28.68
2019-04-16T19:24:13.701Z,31.10
2019-04-16T19:26:44.480Z,31.21
2019-04-16T19:29:15.252Z,32.33
2019-04-16T19:31:46.225Z,32.92
2019-04-16T19:34:17.087Z,32.14
2019-04-16T19:36:47.886Z,30.78
2019-04-16T19:39:18.649Z,32.24
2019-04-16T19:41:49.511Z,32.26
2019-04-16T19:44:22.159Z,33.26
2019-04-16T19:46:54.344Z,33.34
2019-04-16T19:49:25.316Z,34.02
2019-04-16T19:51:56.139Z,33.93
2019-04-16T19:54:26.886Z,33.07
2019-04-16T19:56:57.677Z,33.51
2019-04-16T19:59:28.848Z,33.41
2019-04-16T20:02:01.628Z,35.06
2019-04-16T20:04:32.341Z,34.98
2019-04-16T20:07:03.114Z,35.24
2019-04-16T20:09:33.886Z,35.98
2019-04-16T20:12:04.660Z,35.33
2019-04-16T20:14:36.468Z,36.64
2019-04-16T20:17:07.422Z,36.18
2019-04-16T20:19:57.173Z,36.71
2019-04-16T20:22:28.941Z,36.77
2019-04-16T20:24:59.713Z,36.14
2019-04-16T20:27:30.506Z,35.90
2019-04-16T20:30:01.768Z,36.01
2019-04-16T20:32:34.410Z,35.50
2019-04-16T20:35:05.409Z,35.75
2019-04-16T20:37:36.182Z,36.61
2019-04-16T20:40:06.958Z,37.79
2019-04-16T20:42:37.740Z,37.33
2019-04-16T20:45:08.596Z,38.69
2019-04-16T20:47:40.167Z,37.70
2019-04-16T20:50:11.137Z,37.72
2019-04-16T20:52:41.911Z,38.06
2019-04-16T20:55:15.682Z,38.34
2019-04-16T20:57:45.372Z,39.82
2019-04-16T21:00:18.181Z,38.83
2019-04-16T21:02:51.115Z,39.60
2019-04-16T21:05:22.663Z,39.59
2019-04-16T21:07:54.174Z,40.62
2019-04-16T21:10:24.970Z,40.90
2019-04-16T21:12:56.088Z,41.02
2019-04-16T21:15:27.509Z,41.00
2019-04-16T21:17:59.529Z,41.84
2019-04-16T21:20:30.575Z,42.90
2019-04-16T21:23:03.348Z,42.59
2019-04-16T21:25:34.046Z,43.37
2019-04-16T21:28:09.241Z,43.12
2019-04-16T21:30:43.312Z,43.47
2019-04-16T21:33:17.705Z,43.72
2019-04-16T21:35:50.165Z,42.75
2019-04-16T21:38:31.884Z,44.02
2019-04-16T21:41:02.665Z,43.56
2019-04-16T21:43:35.698Z,44.11
2019-04-16T21:46:06.114Z,43.52
2019-04-16T21:48:36.884Z,43.75
2019-04-16T21:51:07.805Z,45.42
2019-04-16T21:53:38.630Z,44.47
2019-04-16T21:56:09.405Z,44.54
2019-04-16T21:58:40.183Z,45.41
2019-04-16T22:01:15.890Z,44.80
2019-04-16T22:03:48.785Z,43.95
2019-04-16T22:06:20.312Z,45.42
2019-04-16T22:08:51.852Z,46.07
2019-04-16T22:11:22.611Z,45.27
2019-04-16T22:13:53.390Z,45.88
2019-04-16T22:16:26.695Z,46.60
2019-04-16T22:18:56.981Z,46.45
2019-04-16T22:21:27.699Z,46.74
2019-04-16T22:23:58.506Z,47.42
2019-04-16T22:26:34.221Z,47.36
2019-04-16T22:29:02.283Z,47.03
2019-04-16T22:31:33.057Z,47.80
2019-04-16T22:34:03.815Z,47.53
2019-04-16T22:36:34.603Z,45.96
2019-04-16T22:39:10.657Z,47.24
2019-04-16T22:41:45.842Z,48.40
2019-04-16T22:44:30.659Z,48.68
2019-04-16T22:47:06.004Z,48.72
2019-04-16T22:49:36.785Z,48.74
2019-04-16T22:52:07.674Z,48.06
2019-04-16T22:54:38.848Z,47.90
2019-04-16T22:57:11.518Z,46.63
2019-04-16T22:59:42.306Z,48.02
2019-04-16T23:02:18.010Z,47.82
2019-04-16T23:04:48.818Z,48.73
2019-04-16T23:07:19.594Z,48.71
2019-04-16T23:09:50.364Z,48.82
2019-04-16T23:12:21.473Z,46.34
2019-04-16T23:14:52.235Z,45.81
2019-04-16T23:17:25.171Z,46.47
2019-04-16T23:19:55.957Z,47.93
2019-04-16T23:22:26.722Z,48.87
2019-04-16T23:24:57.803Z,49.21
2019-04-16T23:27:28.569Z,48.81
2019-04-16T23:29:59.351Z,48.54
2019-04-16T23:32:30.117Z,49.06
2019-04-16T23:35:00.898Z,49.16
2019-04-16T23:37:31.662Z,48.06
2019-04-16T23:40:03.775Z,49.49
2019-04-16T23:42:36.535Z,49.56
2019-04-16T23:45:09.421Z,49.59
2019-04-16T23:47:47.944Z,49.02
2019-04-16T23:50:20.646Z,48.57
2019-04-16T23:52:55.823Z,48.89
2019-04-16T23:55:31.284Z,48.41
2019-04-16T23:58:10.112Z,48.78
